Bookmark and Share
Track history (hours):
 

African Highway

Last reported at 2014-Apr-24 01:33 UTC. Time now 2014-Apr-24 02:15 UTC.
Position N 53°34' E 005°24'.

Length 154.5 m; beam 27.6 m.

Type: Cargo ship. MMSI: 353633000.

NotesDate/timePositionNaut miles runAvg speedWind from/ knotsBaromVisibWave heightAir tempDewpointWater temp
2014-Apr-24 01:33N 53°34' E 005°24'1817.5
2014-Apr-24 00:33N 53°28' E 004°56'1717.3
2014-Apr-23 23:33N 53°15' E 004°37'1818.4
2014-Apr-23 22:34N 52°59' E 004°22'1817.5
2014-Apr-23 21:33N 52°44' E 004°07'1817.7
2014-Apr-23 20:32N 52°31' E 003°45'1717.5
2014-Apr-23 19:33N 52°19' E 003°25'1717.1
2014-Apr-23 18:33N 52°07' E 003°06'3215.8
2014-Apr-23 16:33N 51°50' E 002°22'1515.1
2014-Apr-23 15:33N 51°41' E 002°03'1515.2
2014-Apr-23 14:33N 51°32' E 001°43'1312.8
2014-Apr-23 13:33N 51°28' E 001°24'1414.2
2014-Apr-23 12:33N 51°29' E 001°01'1110.6
2014-Apr-23 11:33N 51°26' E 000°44'0 0.0
2014-Apr-23 10:33N 51°26' E 000°44'0 0.0
2014-Apr-23 09:33N 51°26' E 000°44'0 0.0
2014-Apr-23 08:33N 51°26' E 000°44'0 0.0
2014-Apr-23 07:33N 51°26' E 000°44'0 0.0
2014-Apr-23 06:33N 51°26' E 000°44'0 0.0
2014-Apr-23 05:33N 51°26' E 000°44'0 0.0
2014-Apr-23 04:33N 51°26' E 000°44'0 0.0
2014-Apr-23 03:33N 51°26' E 000°44'0 0.0
2014-Apr-23 02:33N 51°26' E 000°44'0 0.0
2014-Apr-23 01:33N 51°26' E 000°44'0 0.0
2014-Apr-23 00:33N 51°26' E 000°44'0 0.0
2014-Apr-22 23:33N 51°26' E 000°44'0 0.0
2014-Apr-22 22:30N 51°26' E 000°44'0 0.0
2014-Apr-22 21:33N 51°26' E 000°44'0 0.0
2014-Apr-22 20:33N 51°26' E 000°44'0 0.0
2014-Apr-22 19:34N 51°26' E 000°44'0 0.0
2014-Apr-22 18:34N 51°26' E 000°44'0 0.0
2014-Apr-22 17:33N 51°26' E 000°44'5 5.1
2014-Apr-22 16:34N 51°29' E 000°52'1515.3
2014-Apr-22 15:33N 51°29' E 001°16'9 8.6
2014-Apr-22 14:33N 51°25' E 001°29'1 1.4
2014-Apr-22 13:33N 51°25' E 001°26'0 0.1
2014-Apr-22 12:33N 51°25' E 001°26'0 0.0
2014-Apr-22 11:33N 51°25' E 001°26'0 0.0
2014-Apr-22 10:33N 51°25' E 001°26'0 0.1
2014-Apr-22 09:34N 51°25' E 001°26'4 4.3
2014-Apr-22 08:33N 51°27' E 001°33'1212.1
2014-Apr-22 07:34N 51°33' E 001°50'1312.8
2014-Apr-22 06:32N 51°38' E 002°09'1212.5
2014-Apr-22 05:33N 51°46' E 002°24'6014.9
2014-Apr-22 01:31N 52°33' E 003°25'1516.1
2014-Apr-22 00:33N 52°45' E 003°40'1515.4
2014-Apr-21 23:33N 52°57' E 003°58'1514.5
2014-Apr-21 22:33N 53°06' E 004°16'1313.1
2014-Apr-21 21:33N 53°17' E 004°30'1313.2
2014-Apr-21 20:33N 53°28' E 004°40'1414.5
2014-Apr-21 19:33N 53°34' E 005°02'1615.9
2014-Apr-21 18:33N 53°40' E 005°27'1616.2
2014-Apr-21 17:33N 53°44' E 005°54'1313.0
2014-Apr-21 16:33N 53°40' E 006°14'1313.4
2014-Apr-21 15:33N 53°36' E 006°36'1313.0
2014-Apr-21 14:34N 53°27' E 006°52'1110.7
2014-Apr-21 13:33N 53°20' E 007°05'3 3.3
2014-Apr-21 12:31N 53°20' E 007°10'0 0.0
2014-Apr-21 11:31N 53°20' E 007°10'0 0.0
2014-Apr-21 10:31N 53°20' E 007°10'0 0.0
2014-Apr-21 09:31N 53°20' E 007°10'0 0.0
2014-Apr-21 08:31N 53°20' E 007°10'0 0.0
2014-Apr-21 07:31N 53°20' E 007°10'0 0.0
2014-Apr-21 06:31N 53°20' E 007°10'0 0.0
2014-Apr-21 05:31N 53°20' E 007°10'0 0.0
2014-Apr-21 04:31N 53°20' E 007°10'0 0.0
2014-Apr-21 03:31N 53°20' E 007°10'0 0.0
2014-Apr-21 02:31N 53°20' E 007°10'0 0.0
2014-Apr-21 01:31N 53°20' E 007°10'0 0.0
2014-Apr-21 00:31N 53°20' E 007°10'0 0.0
2014-Apr-20 23:31N 53°20' E 007°10'0 0.0
2014-Apr-20 22:31N 53°20' E 007°10'0 0.0
2014-Apr-20 21:31N 53°20' E 007°10'0 0.0
2014-Apr-20 20:31N 53°20' E 007°10'0 0.0
2014-Apr-20 19:31N 53°20' E 007°10'0 0.0
2014-Apr-20 18:31N 53°20' E 007°10'0 0.0
2014-Apr-20 17:31N 53°20' E 007°10'0 0.0
2014-Apr-20 16:31N 53°20' E 007°10'0 0.0
2014-Apr-20 15:31N 53°20' E 007°10'0 0.0
2014-Apr-20 14:31N 53°20' E 007°10'0 0.0
2014-Apr-20 13:31N 53°20' E 007°10'0 0.0
2014-Apr-20 12:31N 53°20' E 007°10'0 0.0
2014-Apr-20 11:31N 53°20' E 007°10'0 0.0
2014-Apr-20 10:31N 53°20' E 007°10'0 0.0
2014-Apr-20 09:31N 53°20' E 007°10'0 0.0
2014-Apr-20 08:31N 53°20' E 007°10'0 0.0
2014-Apr-20 07:31N 53°20' E 007°10'0 0.0
2014-Apr-20 06:31N 53°20' E 007°10'0 0.0
2014-Apr-20 05:31N 53°20' E 007°10'0 0.0
2014-Apr-20 04:31N 53°20' E 007°10'0 0.0
2014-Apr-20 03:31N 53°20' E 007°10'0 0.0
2014-Apr-20 02:31N 53°20' E 007°10'0 0.0
2014-Apr-20 01:31N 53°20' E 007°10'0 0.0
2014-Apr-20 00:31N 53°20' E 007°10'0 0.0
2014-Apr-19 23:31N 53°20' E 007°10'0 0.0
2014-Apr-19 22:31N 53°20' E 007°10'0 0.0
2014-Apr-19 21:28N 53°20' E 007°10'0 0.0
2014-Apr-19 20:31N 53°20' E 007°10'0 0.0
2014-Apr-19 19:31N 53°20' E 007°10'0 0.0
2014-Apr-19 18:31N 53°20' E 007°10'0 0.0
2014-Apr-19 17:31N 53°20' E 007°10'0 0.0
2014-Apr-19 16:31N 53°20' E 007°10'0 0.0
2014-Apr-19 15:31N 53°20' E 007°10'0 0.0
2014-Apr-19 14:34N 53°20' E 007°10'3 2.9
2014-Apr-19 13:34N 53°20' E 007°05'1212.2
2014-Apr-19 12:34N 53°28' E 006°51'1716.0
2014-Apr-19 11:31N 53°37' E 006°27'1111.7
2014-Apr-19 10:33N 53°39' E 006°08'1313.0
2014-Apr-19 09:33N 53°41' E 005°46'1414.0
2014-Apr-19 08:33N 53°50' E 005°29'1515.2
2014-Apr-19 07:33N 53°54' E 005°03'1514.7
2014-Apr-19 06:33N 53°58' E 004°40'14113.7
2014-Apr-18 20:14N 53°35' E 000°44'1014.8
2014-Apr-18 19:33N 53°32' E 000°27'1211.7
2014-Apr-18 18:34N 53°33' E 000°08'7 7.3
2014-Apr-18 17:33N 53°35' W 000°04'0 0.0
2014-Apr-18 16:30N 53°35' W 000°04'0 0.0
2014-Apr-18 15:30N 53°35' W 000°04'0 0.0
2014-Apr-18 14:30N 53°35' W 000°04'0 0.0
2014-Apr-18 13:30N 53°35' W 000°04'0 0.0
2014-Apr-18 12:32N 53°35' W 000°04'0 0.0
2014-Apr-18 11:33N 53°35' W 000°04'0 0.0
2014-Apr-18 10:30N 53°35' W 000°04'0 0.0
2014-Apr-18 09:33N 53°35' W 000°04'0 0.0
2014-Apr-18 08:33N 53°35' W 000°04'0 0.0
2014-Apr-18 07:33N 53°35' W 000°04'0 0.0
2014-Apr-18 06:33N 53°35' W 000°04'0 0.0
2014-Apr-18 05:33N 53°35' W 000°04'0 0.0
2014-Apr-18 04:33N 53°35' W 000°04'0 0.0
2014-Apr-18 03:29N 53°35' W 000°04'0 0.0
2014-Apr-18 02:30N 53°35' W 000°04'0 0.0
2014-Apr-18 01:29N 53°35' W 000°04'0 0.0
2014-Apr-18 00:30N 53°35' W 000°04'0 0.0
2014-Apr-17 23:29N 53°35' W 000°04'0 0.0
2014-Apr-17 22:32N 53°35' W 000°04'0 0.0
2014-Apr-17 21:33N 53°35' W 000°04'0 0.0
2014-Apr-17 20:32N 53°35' W 000°04'0 0.0
2014-Apr-17 19:32N 53°35' W 000°04'0 0.1
2014-Apr-17 18:33N 53°35' W 000°04'5 4.8
2014-Apr-17 17:33N 53°35' E 000°04'9 8.8
2014-Apr-17 16:33N 53°33' E 000°19'1111.2
2014-Apr-17 15:33N 53°33' E 000°38'38 3.3
2014-Apr-17 04:16N 53°46' E 001°37'1013.9
2014-Apr-17 03:33N 53°49' E 001°54'1514.3
2014-Apr-17 02:32N 53°51' E 002°18'1514.6
2014-Apr-17 01:30N 53°54' E 002°43'7414.5
2014-Apr-16 20:23N 54°02' E 004°49'1314.3
2014-Apr-16 19:29N 53°59' E 005°10'1414.5
2014-Apr-16 18:33N 53°56' E 005°32'1514.7
2014-Apr-16 17:33N 53°52' E 005°56'1413.6
2014-Apr-16 16:34N 53°41' E 006°09'1010.4
2014-Apr-16 15:33N 53°37' E 006°26'1716.8
2014-Apr-16 14:34N 53°29' E 006°50'1312.5
2014-Apr-16 13:34N 53°20' E 007°04'4 3.7
2014-Apr-16 12:30N 53°20' E 007°11'0 0.0
2014-Apr-16 11:33N 53°20' E 007°11'0 0.0
2014-Apr-16 10:33N 53°20' E 007°11'0 0.0
2014-Apr-16 09:33N 53°20' E 007°11'0 0.0
2014-Apr-16 08:33N 53°20' E 007°11'0 0.0
2014-Apr-16 07:33N 53°20' E 007°11'0 0.0
2014-Apr-16 06:33N 53°20' E 007°11'0 0.0
2014-Apr-16 05:33N 53°20' E 007°11'0 0.0
2014-Apr-16 04:33N 53°20' E 007°11'0 0.0
2014-Apr-16 03:33N 53°20' E 007°11'0 0.0
2014-Apr-16 02:30N 53°20' E 007°11'0 0.0
2014-Apr-16 01:33N 53°20' E 007°11'0 0.0
2014-Apr-16 00:33N 53°20' E 007°11'0 0.0
2014-Apr-15 23:33N 53°20' E 007°11'0 0.0
2014-Apr-15 22:33N 53°20' E 007°11'0 0.0
2014-Apr-15 21:33N 53°20' E 007°11'0 0.0
2014-Apr-15 20:33N 53°20' E 007°11'0 0.0
2014-Apr-15 19:33N 53°20' E 007°11'0 0.0
2014-Apr-15 18:30N 53°20' E 007°11'0 0.0
2014-Apr-15 17:33N 53°20' E 007°11'0 0.0
2014-Apr-15 16:33N 53°20' E 007°11'0 0.0
2014-Apr-15 15:30N 53°20' E 007°11'0 0.0
2014-Apr-15 14:33N 53°20' E 007°11'0 0.0
2014-Apr-15 12:34N 53°20' E 007°11'0 0.0
2014-Apr-15 11:33N 53°20' E 007°11'0 0.0
2014-Apr-15 10:33N 53°20' E 007°11'0 0.0
2014-Apr-15 09:33N 53°20' E 007°11'0 0.0
2014-Apr-15 08:33N 53°20' E 007°11'3 3.4
2014-Apr-15 07:34N 53°20' E 007°05'1312.9
2014-Apr-15 06:34N 53°29' E 006°50'1515.3
2014-Apr-15 05:34N 53°37' E 006°28'2411.9
2014-Apr-15 03:34N 53°37' E 005°48'1413.8
2014-Apr-15 02:34N 53°32' E 005°26'1313.5
2014-Apr-15 01:34N 53°29' E 005°04'1312.7
2014-Apr-15 00:34N 53°24' E 004°45'1111.2
2014-Apr-14 23:33N 53°14' E 004°35'1111.3
2014-Apr-14 22:34N 53°04' E 004°27'1111.3
2014-Apr-14 21:34N 52°54' E 004°16'1211.8
2014-Apr-14 20:34N 52°45' E 004°05'1211.8
2014-Apr-14 19:33N 52°36' E 003°53'1212.0
2014-Apr-14 18:33N 52°27' E 003°38'6613.2
2014-Apr-14 13:33N 51°46' E 002°14'3216.0
2014-Apr-14 11:34N 51°30' E 001°31'1313.3
2014-Apr-14 10:34N 51°29' E 001°09'1414.1
2014-Apr-14 09:34N 51°28' E 000°47'2 1.9
2014-Apr-14 08:31N 51°26' E 000°44'0 0.0
2014-Apr-14 07:31N 51°26' E 000°44'0 0.0
2014-Apr-14 06:31N 51°26' E 000°44'0 0.0
2014-Apr-14 05:31N 51°26' E 000°44'  

Dump ship's entire track history

sailing weather and tide predictions

African Highway — 3EOD8 — position and weather